Time;durP1;ratioP1;P1;durP2;ratioP2;P2;SDS_P1;SDS_P2;PMS_P1;PMS_P2;Temp;Humidity;BMP_temperature;BMP_pressure;BME280_temperature;BME280_humidity;BME280_pressure;Samples;Min_cycle;Max_cycle;Signal;HPM_P1;HPM_P2
2022/09/16 00:00:15;;;;;;;3.47;1.35;;;11.50;99.90;;;;;;5056556;28;20507;-70
2022/09/16 00:02:41;;;;;;;4.57;1.30;;;11.40;99.90;;;;;;5057053;28;20033;-70
2022/09/16 00:05:08;;;;;;;5.55;1.60;;;11.30;99.90;;;;;;5057465;28;20115;-70
2022/09/16 00:07:33;;;;;;;5.72;1.38;;;11.30;99.90;;;;;;5056882;28;20095;-70
2022/09/16 00:09:59;;;;;;;6.43;1.73;;;11.20;99.90;;;;;;5048755;28;20073;-70
2022/09/16 00:12:25;;;;;;;8.98;1.70;;;11.20;99.90;;;;;;5051874;28;20091;-70
2022/09/16 00:14:52;;;;;;;5.00;1.60;;;11.10;99.90;;;;;;5056726;28;20040;-70
2022/09/16 00:17:18;;;;;;;9.27;1.73;;;11.10;99.90;;;;;;5056683;28;20073;-70
2022/09/16 00:19:44;;;;;;;6.53;1.40;;;11.10;99.90;;;;;;5056521;28;20056;-70
2022/09/16 00:22:10;;;;;;;9.40;1.88;;;11.10;99.90;;;;;;5056585;28;20367;-70
2022/09/16 00:24:35;;;;;;;6.13;1.70;;;11.10;99.90;;;;;;5043856;28;20420;-70
2022/09/16 00:27:01;;;;;;;10.90;1.67;;;11.20;99.90;;;;;;5019203;28;20437;-70
2022/09/16 00:29:27;;;;;;;5.88;1.80;;;11.20;99.90;;;;;;5036125;28;20041;-71
2022/09/16 00:31:52;;;;;;;5.93;1.75;;;11.20;99.90;;;;;;5036599;28;20206;-70
2022/09/16 00:34:18;;;;;;;7.55;1.95;;;11.20;99.90;;;;;;5036613;28;20096;-70
2022/09/16 00:36:43;;;;;;;6.97;1.73;;;11.30;99.90;;;;;;5036457;28;20033;-70
2022/09/16 00:39:09;;;;;;;5.00;1.60;;;11.30;99.90;;;;;;5036687;28;20052;-70
2022/09/16 00:41:36;;;;;;;7.68;1.55;;;11.30;99.90;;;;;;5036483;28;20072;-70
2022/09/16 00:44:04;;;;;;;4.60;1.75;;;11.40;99.90;;;;;;5036274;28;20099;-70
2022/09/16 00:46:44;;;;;;;11.25;1.90;;;11.40;99.90;;;;;;5036717;28;20106;-70
2022/09/16 00:49:26;;;;;;;4.72;1.30;;;11.40;99.90;;;;;;5035245;28;20072;-71
2022/09/16 00:51:58;;;;;;;6.00;1.33;;;11.40;99.90;;;;;;5009998;28;20041;-70
2022/09/16 00:54:24;;;;;;;6.00;1.45;;;11.50;99.90;;;;;;5056029;28;20053;-69
2022/09/16 00:56:56;;;;;;;5.55;1.40;;;11.50;99.90;;;;;;5056565;28;20432;-70
2022/09/16 00:59:29;;;;;;;4.38;1.38;;;11.50;99.90;;;;;;5055912;28;20045;-71
2022/09/16 01:01:57;;;;;;;5.72;1.58;;;11.50;99.90;;;;;;5056085;28;20068;-70
2022/09/16 01:04:32;;;;;;;7.22;1.60;;;11.50;99.90;;;;;;5055517;28;20520;-70
2022/09/16 01:06:58;;;;;;;8.02;1.20;;;11.60;99.90;;;;;;5054975;28;20473;-70
2022/09/16 01:09:25;;;;;;;6.13;1.33;;;11.50;99.90;;;;;;5056044;28;20036;-70
2022/09/16 01:11:51;;;;;;;6.05;1.42;;;11.50;99.90;;;;;;5055909;28;20041;-70
2022/09/16 01:17:38;;;;;;;5.47;1.50;;;11.60;99.90;;;;;;5055469;28;20045;-70
2022/09/16 01:20:28;;;;;;;9.00;1.48;;;11.50;99.90;;;;;;5050817;28;20052;-71
2022/09/16 01:23:13;;;;;;;4.30;1.10;;;11.50;99.90;;;;;;5052015;28;20075;-71
2022/09/16 01:26:07;;;;;;;3.47;1.00;;;11.40;99.90;;;;;;5035574;28;20048;-71
2022/09/16 01:28:42;;;;;;;5.22;1.38;;;11.40;99.90;;;;;;5035782;28;20045;-70
2022/09/16 01:31:22;;;;;;;5.90;1.48;;;11.40;99.90;;;;;;5035673;28;20409;-71
2022/09/16 01:34:05;;;;;;;5.57;1.50;;;11.40;99.90;;;;;;5035457;28;20050;-71
2022/09/16 01:36:35;;;;;;;8.20;1.23;;;11.40;99.90;;;;;;5035673;28;20060;-70
2022/09/16 01:39:17;;;;;;;5.50;1.30;;;11.40;99.90;;;;;;5035234;28;20106;-70
2022/09/16 01:42:06;;;;;;;8.38;1.40;;;11.40;99.90;;;;;;5035169;28;20045;-70
2022/09/16 01:44:50;;;;;;;5.28;1.40;;;11.30;99.90;;;;;;5035202;28;20054;-71
2022/09/16 01:47:41;;;;;;;8.77;1.92;;;11.30;99.90;;;;;;5041771;28;20458;-70
2022/09/16 01:50:13;;;;;;;6.20;1.30;;;11.20;99.90;;;;;;5055221;28;20052;-70
2022/09/16 01:52:59;;;;;;;6.18;1.42;;;11.20;99.90;;;;;;5054192;28;20151;-70
2022/09/16 01:55:38;;;;;;;6.50;1.40;;;11.10;99.90;;;;;;5055023;28;20041;-70
2022/09/16 01:58:13;;;;;;;10.30;1.50;;;11.10;99.90;;;;;;5054868;28;20530;-70
2022/09/16 02:00:42;;;;;;;9.75;1.63;;;11.10;99.90;;;;;;5054311;28;20491;-71
2022/09/16 02:03:14;;;;;;;4.50;1.13;;;11.00;99.90;;;;;;5054899;28;20056;-70
2022/09/16 02:05:50;;;;;;;4.90;1.40;;;11.00;99.90;;;;;;5053979;28;20052;-70
2022/09/16 02:08:35;;;;;;;5.88;1.30;;;10.90;99.90;;;;;;5054587;28;20049;-71
2022/09/16 02:11:04;;;;;;;2.60;1.00;;;11.00;99.90;;;;;;5034833;28;20343;-71
2022/09/16 02:13:41;;;;;;;4.93;1.23;;;10.90;99.90;;;;;;5034694;28;20049;-70
2022/09/16 02:16:12;;;;;;;7.07;1.73;;;10.90;99.90;;;;;;5039938;28;20124;-70
2022/09/16 02:18:41;;;;;;;4.55;1.52;;;10.90;99.90;;;;;;5041955;28;20057;-71
2022/09/16 02:21:13;;;;;;;8.52;1.80;;;10.80;99.90;;;;;;5034754;28;20349;-70
2022/09/16 02:23:44;;;;;;;5.10;1.50;;;10.80;99.90;;;;;;5034825;28;20053;-71
2022/09/16 02:26:16;;;;;;;10.57;1.58;;;10.80;99.90;;;;;;5034585;28;20068;-70
2022/09/16 02:28:45;;;;;;;8.82;1.70;;;10.80;99.90;;;;;;5034609;28;20049;-70
2022/09/16 02:31:13;;;;;;;4.93;1.30;;;10.90;99.90;;;;;;5034644;28;20052;-70
2022/09/16 02:33:44;;;;;;;6.95;1.67;;;10.90;99.90;;;;;;5017301;28;20046;-71
2022/09/16 02:36:15;;;;;;;3.65;1.20;;;10.90;99.90;;;;;;5034698;28;20056;-70
2022/09/16 02:38:44;;;;;;;5.13;1.55;;;10.90;99.90;;;;;;5034479;28;20393;-70
2022/09/16 02:41:13;;;;;;;8.02;1.88;;;10.90;99.90;;;;;;5045845;28;20049;-71
2022/09/16 02:43:40;;;;;;;6.80;1.70;;;10.80;99.90;;;;;;5054134;28;20484;-70
2022/09/16 02:46:18;;;;;;;5.90;1.42;;;10.90;99.90;;;;;;5054745;28;20045;-70
2022/09/16 02:49:18;;;;;;;6.20;1.63;;;10.90;99.90;;;;;;5054505;28;20049;-69
2022/09/16 02:52:10;;;;;;;5.97;1.17;;;10.90;99.90;;;;;;5050241;28;20124;-71
2022/09/16 02:54:41;;;;;;;5.75;1.33;;;10.90;99.90;;;;;;5049427;28;20053;-70
2022/09/16 02:57:08;;;;;;;6.57;2.25;;;11.00;99.90;;;;;;5034529;28;20056;-71
2022/09/16 02:59:34;;;;;;;5.50;1.48;;;11.00;99.90;;;;;;5034239;28;20139;-71
2022/09/16 03:02:00;;;;;;;9.85;1.73;;;11.00;99.90;;;;;;5034116;28;20077;-71
2022/09/16 03:04:27;;;;;;;9.32;1.73;;;11.10;99.90;;;;;;5033876;28;20044;-70
2022/09/16 03:06:52;;;;;;;8.55;1.52;;;11.10;99.90;;;;;;5034266;28;20046;-70
2022/09/16 03:09:22;;;;;;;8.85;2.05;;;11.10;99.90;;;;;;5033811;28;20385;-70
2022/09/16 03:11:58;;;;;;;10.25;1.58;;;11.10;99.90;;;;;;5034797;28;20046;-71
2022/09/16 03:14:45;;;;;;;10.80;1.83;;;11.10;99.90;;;;;;5038094;28;20049;-70
2022/09/16 03:17:39;;;;;;;9.90;1.67;;;11.10;99.90;;;;;;5038071;28;20046;-71
2022/09/16 03:20:20;;;;;;;;;;;11.10;99.90;;;;;;5038526;28;20056;-71
2022/09/16 03:22:51;;;;;;;8.00;1.65;;;11.10;99.90;;;;;;5037915;28;19924;-69
2022/09/16 03:25:42;;;;;;;8.93;1.55;;;11.10;99.90;;;;;;5020846;28;20049;-70
2022/09/16 03:28:15;;;;;;;6.45;1.40;;;11.20;99.90;;;;;;5054963;28;20127;-69
2022/09/16 03:31:03;;;;;;;7.78;1.40;;;11.10;99.90;;;;;;5057686;28;20041;-69
2022/09/16 03:33:54;;;;;;;6.05;1.50;;;11.10;99.90;;;;;;5057831;28;20461;-70
2022/09/16 03:36:25;;;;;;;7.30;1.60;;;11.00;99.90;;;;;;5057750;28;20083;-71
2022/09/16 03:38:52;;;;;;;20.30;1.77;;;10.80;99.90;;;;;;5057530;28;20127;-70
2022/09/16 03:41:18;;;;;;;6.88;1.55;;;10.80;99.90;;;;;;5056946;28;20095;-70
2022/09/16 03:43:54;;;;;;;6.07;1.38;;;10.70;99.90;;;;;;5057112;28;20098;-70
2022/09/16 03:46:20;;;;;;;9.18;1.83;;;10.70;99.90;;;;;;5057431;28;20041;-71
2022/09/16 03:48:46;;;;;;;5.55;1.55;;;10.60;99.90;;;;;;5057397;28;20037;-69
2022/09/16 03:51:11;;;;;;;10.85;1.58;;;10.50;99.90;;;;;;5057468;28;20079;-70
2022/09/16 03:53:37;;;;;;;7.85;1.30;;;10.40;99.90;;;;;;5057355;28;20041;-69
2022/09/16 03:56:03;;;;;;;6.57;1.50;;;10.40;99.90;;;;;;5055729;28;20128;-70
2022/09/16 03:58:28;;;;;;;6.65;1.73;;;10.30;99.90;;;;;;5038115;28;20072;-69
2022/09/16 04:00:54;;;;;;;10.10;1.50;;;10.30;99.90;;;;;;5032640;28;20131;-70
2022/09/16 04:03:20;;;;;;;9.95;1.83;;;10.30;99.90;;;;;;5041382;28;20037;-72
2022/09/16 04:05:50;;;;;;;9.18;1.70;;;10.30;99.90;;;;;;5052559;28;20202;-70
2022/09/16 04:08:16;;;;;;;11.63;1.70;;;10.30;99.90;;;;;;5054642;28;20098;-70
2022/09/16 04:10:41;;;;;;;9.05;1.80;;;10.40;99.90;;;;;;5036984;28;20132;-71
2022/09/16 04:13:08;;;;;;;9.82;1.58;;;10.40;99.90;;;;;;5037542;28;20041;-71
2022/09/16 04:15:37;;;;;;;8.38;1.85;;;10.80;99.90;;;;;;5037033;28;20055;-71
2022/09/16 04:18:03;;;;;;;9.10;1.85;;;10.40;99.90;;;;;;5019673;28;20057;-69
2022/09/16 04:20:29;;;;;;;7.82;1.73;;;10.30;99.90;;;;;;5039610;28;20401;-71
2022/09/16 04:22:55;;;;;;;8.68;1.88;;;10.30;99.90;;;;;;5057048;28;20110;-70
2022/09/16 04:25:20;;;;;;;7.43;1.58;;;10.20;99.90;;;;;;5057674;28;20472;-71
2022/09/16 04:27:46;;;;;;;6.22;1.83;;;10.10;99.90;;;;;;5057196;28;20132;-72
2022/09/16 04:30:12;;;;;;;7.65;1.70;;;10.10;99.90;;;;;;5057242;28;20036;-72
2022/09/16 04:32:37;;;;;;;7.45;1.33;;;10.00;99.90;;;;;;5057106;28;20123;-72
2022/09/16 04:35:04;;;;;;;8.30;1.85;;;10.00;99.90;;;;;;5056351;28;20438;-70
2022/09/16 04:37:30;;;;;;;9.32;2.00;;;9.90;99.90;;;;;;5058026;28;20126;-70
2022/09/16 04:39:56;;;;;;;8.80;1.60;;;9.90;99.90;;;;;;5055783;28;20495;-71
2022/09/16 04:42:22;;;;;;;7.10;1.80;;;9.80;99.90;;;;;;5056476;28;20037;-70
2022/09/16 04:44:47;;;;;;;7.20;1.60;;;9.80;99.90;;;;;;5038705;28;20048;-71
2022/09/16 04:47:13;;;;;;;8.60;2.05;;;9.70;99.90;;;;;;5056592;28;20052;-72
2022/09/16 04:49:38;;;;;;;6.47;1.70;;;9.70;99.90;;;;;;5056720;28;20048;-72
2022/09/16 04:52:04;;;;;;;8.15;1.70;;;9.60;99.90;;;;;;5055769;28;20041;-71
2022/09/16 04:54:29;;;;;;;7.97;1.70;;;9.60;99.90;;;;;;5037943;28;20473;-71
2022/09/16 04:56:56;;;;;;;9.15;1.95;;;9.50;99.90;;;;;;5036195;28;20457;-72
2022/09/16 04:59:22;;;;;;;9.05;2.10;;;9.50;99.90;;;;;;5036440;28;20408;-72
2022/09/16 05:01:47;;;;;;;7.25;1.52;;;9.50;99.90;;;;;;5036823;28;20124;-71
2022/09/16 05:04:13;;;;;;;8.27;1.70;;;9.60;99.90;;;;;;5036473;28;20505;-72
2022/09/16 05:06:40;;;;;;;10.60;2.17;;;9.60;99.90;;;;;;5036210;28;20103;-72
2022/09/16 05:09:06;;;;;;;12.95;2.65;;;9.70;99.90;;;;;;5036245;28;20059;-71
2022/09/16 05:11:34;;;;;;;10.27;2.40;;;9.80;99.90;;;;;;5037277;28;20052;-71
2022/09/16 05:14:02;;;;;;;8.90;1.80;;;9.90;99.90;;;;;;5055963;28;20041;-72
2022/09/16 05:16:28;;;;;;;13.70;2.28;;;10.00;99.90;;;;;;5055793;28;20045;-70
2022/09/16 05:18:56;;;;;;;11.10;2.60;;;10.00;99.90;;;;;;5055933;28;20138;-71
2022/09/16 05:21:24;;;;;;;10.52;2.00;;;10.10;99.90;;;;;;5055920;28;20045;-71
2022/09/16 05:23:50;;;;;;;16.17;2.45;;;10.10;99.90;;;;;;5055690;28;20044;-70
2022/09/16 05:26:20;;;;;;;16.65;2.17;;;10.20;99.90;;;;;;5055276;28;20043;-69
2022/09/16 05:28:46;;;;;;;9.18;2.10;;;10.20;99.90;;;;;;5055678;28;20049;-69
2022/09/16 05:31:15;;;;;;;9.40;1.90;;;10.20;99.90;;;;;;5038007;28;20044;-69
2022/09/16 05:33:43;;;;;;;10.02;2.03;;;10.10;99.90;;;;;;5055828;28;20071;-69
2022/09/16 05:36:14;;;;;;;13.48;2.53;;;10.10;99.90;;;;;;5055151;28;20830;-69
2022/09/16 05:38:39;;;;;;;15.45;2.60;;;10.00;99.90;;;;;;5049276;28;20064;-69
2022/09/16 05:41:06;;;;;;;10.10;2.53;;;10.10;99.90;;;;;;5054518;28;20045;-68
2022/09/16 05:43:32;;;;;;;11.90;2.33;;;10.00;99.90;;;;;;5054999;28;20041;-69
2022/09/16 05:45:58;;;;;;;14.18;2.13;;;10.10;99.90;;;;;;5038369;28;20063;-69
2022/09/16 05:48:24;;;;;;;16.85;2.30;;;10.00;99.90;;;;;;5055271;28;20120;-70
2022/09/16 05:51:01;;;;;;;10.00;1.80;;;10.00;99.90;;;;;;5055162;28;20041;-69
2022/09/16 05:53:28;;;;;;;7.72;2.28;;;10.10;99.90;;;;;;5055051;28;20040;-68
2022/09/16 05:55:57;;;;;;;8.88;1.90;;;10.10;99.90;;;;;;5052435;28;20110;-68
2022/09/16 05:58:24;;;;;;;13.88;2.17;;;10.20;99.90;;;;;;5035388;28;20130;-70
2022/09/16 06:00:49;;;;;;;10.85;2.03;;;10.20;99.90;;;;;;5035353;28;20038;-68
2022/09/16 06:03:16;;;;;;;13.75;3.10;;;10.20;99.90;;;;;;5035017;28;20068;-70
2022/09/16 06:05:41;;;;;;;12.13;2.55;;;10.30;99.90;;;;;;5034980;28;20072;-69
2022/09/16 06:08:07;;;;;;;11.52;2.13;;;10.30;99.90;;;;;;5035281;28;20041;-70
2022/09/16 06:10:37;;;;;;;8.63;1.80;;;10.30;99.90;;;;;;5035399;28;20064;-69
2022/09/16 06:13:03;;;;;;;17.10;2.58;;;10.30;99.90;;;;;;5035150;28;20057;-70
2022/09/16 06:15:28;;;;;;;11.00;2.08;;;10.40;99.90;;;;;;5035263;28;20045;-70
2022/09/16 06:17:54;;;;;;;12.02;2.28;;;10.50;99.90;;;;;;5034853;28;20041;-70
2022/09/16 06:20:20;;;;;;;10.07;1.65;;;10.60;99.90;;;;;;5034757;28;20064;-70
2022/09/16 06:22:45;;;;;;;8.95;1.88;;;10.80;99.90;;;;;;5034725;28;20053;-69
2022/09/16 06:25:11;;;;;;;14.13;2.70;;;10.90;99.90;;;;;;5034766;28;20053;-69
2022/09/16 06:27:36;;;;;;;11.20;2.28;;;11.00;99.90;;;;;;5050619;28;20037;-70
2022/09/16 06:30:03;;;;;;;10.73;2.00;;;11.20;99.90;;;;;;5054645;28;20508;-69
2022/09/16 06:32:32;;;;;;;13.45;2.45;;;11.10;99.90;;;;;;5054661;28;20465;-70
2022/09/16 06:34:57;;;;;;;14.57;1.85;;;11.10;99.90;;;;;;5037194;28;20049;-71
2022/09/16 06:37:24;;;;;;;10.20;1.70;;;11.10;99.90;;;;;;5055225;28;20056;-72
2022/09/16 06:39:50;;;;;;;7.45;1.83;;;11.10;99.90;;;;;;5054863;28;20052;-71
2022/09/16 06:42:16;;;;;;;8.75;1.90;;;11.20;99.90;;;;;;5054294;28;20045;-72
2022/09/16 06:44:41;;;;;;;14.50;2.83;;;11.30;99.90;;;;;;5054639;28;20385;-71
2022/09/16 06:47:07;;;;;;;9.52;2.17;;;11.30;99.90;;;;;;5055472;28;20436;-72
2022/09/16 06:49:32;;;;;;;12.80;2.60;;;11.50;99.90;;;;;;5058616;28;20045;-71
2022/09/16 06:51:58;;;;;;;13.10;2.20;;;11.50;99.90;;;;;;5058827;28;20060;-72
2022/09/16 06:54:23;;;;;;;8.95;1.60;;;11.60;99.90;;;;;;5058632;28;20468;-72
2022/09/16 06:56:49;;;;;;;9.63;2.28;;;11.70;99.90;;;;;;5044499;28;20355;-72
2022/09/16 06:59:14;;;;;;;9.05;1.83;;;11.90;99.90;;;;;;5038482;28;20103;-71
2022/09/16 07:01:40;;;;;;;7.80;1.90;;;12.00;99.90;;;;;;5020913;28;20104;-71
2022/09/16 07:04:14;;;;;;;6.70;1.75;;;12.10;99.90;;;;;;5038215;28;20347;-72
2022/09/16 07:06:40;;;;;;;9.60;2.00;;;12.20;99.90;;;;;;5038760;28;20354;-72
2022/09/16 07:09:06;;;;;;;8.65;1.83;;;12.30;99.90;;;;;;5038617;28;20051;-71
2022/09/16 07:11:31;;;;;;;13.25;2.40;;;12.40;99.90;;;;;;5038393;28;20068;-71
2022/09/16 07:13:59;;;;;;;17.10;2.38;;;12.50;99.90;;;;;;5038160;28;20049;-71
2022/09/16 07:16:25;;;;;;;10.40;1.80;;;12.50;99.90;;;;;;5038052;28;20053;-71
2022/09/16 07:18:55;;;;;;;11.13;2.38;;;12.60;99.90;;;;;;5038975;28;20084;-72
2022/09/16 07:21:24;;;;;;;11.07;2.20;;;12.70;99.90;;;;;;5057832;28;20123;-72
2022/09/16 07:23:50;;;;;;;10.93;2.47;;;12.80;99.90;;;;;;5038303;28;20076;-71
2022/09/16 07:26:18;;;;;;;14.90;3.10;;;13.00;99.90;;;;;;5038291;28;20440;-71
2022/09/16 07:28:46;;;;;;;10.70;2.08;;;13.20;99.90;;;;;;5036991;28;20099;-73
2022/09/16 07:31:16;;;;;;;10.77;2.13;;;13.30;99.90;;;;;;5038256;28;20045;-72
2022/09/16 07:33:43;;;;;;;10.13;1.75;;;13.40;99.90;;;;;;5037861;28;20037;-72
2022/09/16 07:36:11;;;;;;;14.50;2.22;;;13.40;99.90;;;;;;5038010;28;20046;-72
2022/09/16 07:38:38;;;;;;;10.98;2.15;;;13.30;99.90;;;;;;5037992;28;20369;-71
2022/09/16 07:41:10;;;;;;;11.50;2.35;;;13.30;99.90;;;;;;5037670;28;20064;-72
2022/09/16 07:43:35;;;;;;;11.93;2.85;;;13.30;99.90;;;;;;5037944;28;20041;-71
2022/09/16 07:46:01;;;;;;;9.40;2.05;;;13.30;99.90;;;;;;5038067;28;20347;-71
2022/09/16 07:48:31;;;;;;;11.85;2.47;;;13.30;99.90;;;;;;5037820;28;20037;-71
2022/09/16 07:50:59;;;;;;;10.93;2.20;;;13.30;99.90;;;;;;5037772;28;20432;-72
2022/09/16 07:53:27;;;;;;;10.27;1.90;;;13.30;99.90;;;;;;5037599;28;20045;-71
2022/09/16 07:55:54;;;;;;;10.07;2.30;;;13.40;99.90;;;;;;5037316;28;20054;-72
2022/09/16 07:58:20;;;;;;;11.13;2.42;;;13.50;99.90;;;;;;5037433;28;20049;-71
2022/09/16 08:00:48;;;;;;;10.95;2.38;;;13.70;99.90;;;;;;5037257;28;20056;-72
2022/09/16 08:03:14;;;;;;;10.38;2.42;;;13.80;99.90;;;;;;5037612;28;20057;-72
2022/09/16 08:05:40;;;;;;;13.30;2.40;;;13.90;99.90;;;;;;5037373;28;20041;-71
2022/09/16 08:08:06;;;;;;;7.20;1.80;;;14.00;99.90;;;;;;5036852;28;20440;-71
2022/09/16 08:10:31;;;;;;;9.57;2.45;;;14.00;99.90;;;;;;5037187;28;20107;-72
2022/09/16 08:12:57;;;;;;;20.23;2.40;;;14.10;99.90;;;;;;5037441;28;20057;-71
2022/09/16 08:15:22;;;;;;;10.45;2.60;;;14.20;99.90;;;;;;5037688;28;20049;-72
2022/09/16 08:17:48;;;;;;;9.85;2.25;;;14.40;99.90;;;;;;5050480;28;20049;-71
2022/09/16 08:20:14;;;;;;;9.55;2.03;;;14.40;99.90;;;;;;5057280;28;20084;-71
2022/09/16 08:22:40;;;;;;;14.82;2.20;;;14.50;99.90;;;;;;5057069;28;20048;-71
2022/09/16 08:25:06;;;;;;;13.07;2.80;;;14.50;99.90;;;;;;5056769;28;20038;-72
2022/09/16 08:27:34;;;;;;;13.10;1.75;;;14.50;99.90;;;;;;5057244;28;20044;-71
2022/09/16 08:30:00;;;;;;;15.02;2.85;;;14.50;99.90;;;;;;5056651;28;20107;-72
2022/09/16 08:32:25;;;;;;;13.00;2.55;;;14.50;99.90;;;;;;5056333;28;20053;-71
2022/09/16 08:34:52;;;;;;;17.17;3.10;;;14.40;99.90;;;;;;5056779;28;20052;-71
2022/09/16 08:37:18;;;;;;;14.98;2.75;;;14.40;99.90;;;;;;5056826;28;20060;-71
2022/09/16 08:39:43;;;;;;;15.68;2.63;;;14.40;99.90;;;;;;5056503;28;20361;-72
2022/09/16 08:42:22;;;;;;;13.43;2.70;;;14.30;99.90;;;;;;5056641;28;20063;-71
2022/09/16 08:45:18;;;;;;;11.07;2.83;;;14.30;99.90;;;;;;5056535;28;20110;-71
2022/09/16 08:48:27;;;;;;;12.48;2.55;;;14.30;99.90;;;;;;5039139;28;20064;-70
2022/09/16 08:50:53;;;;;;;14.32;2.75;;;14.30;99.90;;;;;;5036264;28;20049;-70
2022/09/16 08:53:56;;;;;;;12.18;2.95;;;14.30;99.90;;;;;;5036326;28;20446;-69
2022/09/16 08:56:26;;;;;;;15.10;2.83;;;14.40;99.90;;;;;;5036175;28;20091;-71
2022/09/16 08:58:54;;;;;;;12.75;2.40;;;14.50;99.90;;;;;;5036327;28;20057;-70
2022/09/16 09:01:38;;;;;;;9.00;2.08;;;14.50;99.90;;;;;;5026485;28;20045;-70
2022/09/16 09:04:04;;;;;;;10.88;2.00;;;14.60;99.90;;;;;;5055695;28;20037;-70
2022/09/16 09:06:48;;;;;;;17.40;2.45;;;14.70;99.90;;;;;;5056224;28;20056;-69
2022/09/16 09:09:34;;;;;;;11.43;2.65;;;14.80;99.90;;;;;;5055456;28;20045;-69
2022/09/16 09:12:27;;;;;;;10.88;2.03;;;15.00;99.90;;;;;;5055809;28;20048;-72
2022/09/16 09:14:55;;;;;;;12.27;2.50;;;15.10;99.90;;;;;;5055943;28;20084;-73
2022/09/16 09:17:28;;;;;;;10.45;2.33;;;15.20;99.90;;;;;;5041457;28;20053;-72
2022/09/16 09:20:35;;;;;;;12.13;3.15;;;15.40;99.90;;;;;;5035718;28;20057;-72
2022/09/16 09:23:26;;;;;;;13.15;2.38;;;15.60;99.90;;;;;;5025048;28;20160;-72
2022/09/16 09:26:20;;;;;;;15.75;2.13;;;15.70;99.90;;;;;;5035441;28;20513;-73
2022/09/16 09:29:05;;;;;;;9.73;2.60;;;15.90;99.90;;;;;;5035880;28;20335;-72
2022/09/16 09:31:42;;;;;;;15.60;2.35;;;15.90;99.90;;;;;;5035376;28;20136;-72
2022/09/16 09:34:30;;;;;;;10.57;2.75;;;15.90;99.90;;;;;;5036002;28;20072;-71
2022/09/16 09:37:13;;;;;;;11.20;2.15;;;15.80;99.90;;;;;;5035605;28;20053;-72
2022/09/16 09:40:08;;;;;;;10.90;2.22;;;15.90;99.90;;;;;;5035791;28;20056;-73
2022/09/16 09:43:03;;;;;;;13.35;2.55;;;16.00;99.90;;;;;;5001587;28;20053;-73
2022/09/16 09:45:37;;;;;;;10.38;1.95;;;16.20;99.90;;;;;;5036208;28;20087;-72
2022/09/16 09:48:21;;;;;;;8.45;1.90;;;16.50;99.90;;;;;;5055589;28;20156;-73
2022/09/16 09:50:48;;;;;;;12.38;2.10;;;16.60;99.90;;;;;;5055305;28;20049;-73
2022/09/16 09:53:34;;;;;;;8.55;2.08;;;16.50;99.90;;;;;;5055460;28;20037;-72
2022/09/16 09:56:09;;;;;;;14.13;2.40;;;16.20;99.90;;;;;;5037545;28;20065;-72
2022/09/16 09:58:50;;;;;;;8.88;2.03;;;15.90;99.90;;;;;;5055156;28;20477;-72
2022/09/16 10:01:17;;;;;;;8.77;2.25;;;15.60;99.90;;;;;;5054349;28;20464;-73
2022/09/16 10:03:44;;;;;;;10.52;2.38;;;15.60;99.90;;;;;;5055419;28;20057;-73
2022/09/16 10:06:10;;;;;;;11.80;2.60;;;15.80;99.90;;;;;;5053917;28;20045;-72
2022/09/16 10:08:48;;;;;;;10.18;2.35;;;15.90;99.90;;;;;;5054975;28;20404;-73
2022/09/16 10:11:19;;;;;;;10.52;1.77;;;16.10;99.90;;;;;;5055054;28;20045;-73
2022/09/16 10:14:04;;;;;;;12.02;2.25;;;15.90;99.90;;;;;;5055020;28;20041;-72
2022/09/16 10:16:36;;;;;;;9.88;2.42;;;15.80;99.90;;;;;;5054890;28;20131;-73
2022/09/16 10:19:07;;;;;;;8.27;2.20;;;15.80;99.90;;;;;;5054722;28;20069;-74
2022/09/16 10:21:40;;;;;;;14.80;2.25;;;15.90;99.90;;;;;;5048702;28;20406;-74
2022/09/16 10:24:30;;;;;;;12.20;2.53;;;16.10;99.90;;;;;;5034711;28;20077;-74
2022/09/16 10:26:57;;;;;;;9.77;2.15;;;16.30;99.90;;;;;;5034861;28;20045;-75
2022/09/16 10:29:22;;;;;;;10.38;1.88;;;16.40;99.90;;;;;;5035139;28;20045;-74
2022/09/16 10:31:49;;;;;;;12.25;2.30;;;16.60;99.90;;;;;;5034961;28;20033;-74
2022/09/16 10:34:18;;;;;;;9.20;2.08;;;16.60;99.90;;;;;;5018270;28;20081;-74
2022/09/16 10:36:44;;;;;;;10.20;1.77;;;16.50;99.90;;;;;;5054817;28;20041;-74
2022/09/16 10:39:22;;;;;;;10.55;2.35;;;16.60;99.90;;;;;;5054971;28;20045;-74
2022/09/16 10:41:49;;;;;;;11.50;2.13;;;16.50;99.90;;;;;;5054695;28;20111;-74
2022/09/16 10:44:22;;;;;;;10.02;2.08;;;16.60;99.20;;;;;;5054995;28;20124;-74
2022/09/16 10:47:07;;;;;;;7.82;2.15;;;16.70;99.90;;;;;;5054566;28;20106;-74
2022/09/16 10:49:51;;;;;;;13.05;2.08;;;16.80;99.50;;;;;;5031527;28;20163;-75
2022/09/16 10:52:26;;;;;;;12.98;2.50;;;17.10;97.60;;;;;;5017727;28;20049;-75
2022/09/16 10:54:52;;;;;;;9.40;1.80;;;17.10;97.40;;;;;;5034435;28;20049;-75
2022/09/16 10:57:31;;;;;;;10.35;2.15;;;16.90;98.50;;;;;;5034690;28;20052;-74
2022/09/16 10:59:56;;;;;;;11.90;2.47;;;16.80;99.20;;;;;;5034793;28;20057;-74
2022/09/16 11:02:51;;;;;;;9.25;2.15;;;16.50;99.20;;;;;;5034989;28;20477;-74
2022/09/16 11:05:55;;;;;;;9.65;2.30;;;16.30;98.80;;;;;;5030372;28;20041;-74
2022/09/16 11:08:49;;;;;;;8.52;2.08;;;16.20;98.20;;;;;;5053262;28;20140;-75
2022/09/16 11:11:40;;;;;;;8.02;2.42;;;16.20;99.90;;;;;;5037360;28;20056;-73
2022/09/16 11:14:16;;;;;;;14.32;2.67;;;16.10;99.90;;;;;;5054303;28;20060;-74
2022/09/16 11:17:10;;;;;;;12.43;2.33;;;16.00;99.90;;;;;;5054284;28;20041;-74
2022/09/16 11:19:52;;;;;;;;;;;16.20;99.90;;;;;;5043918;28;20420;-74
2022/09/16 11:22:23;;;;;;;5.63;1.40;;;16.40;99.90;;;;;;5034644;28;20038;-75
2022/09/16 11:25:30;;;;;;;9.05;2.40;;;16.60;99.90;;;;;;4983650;28;20061;-74
2022/09/16 11:28:13;;;;;;;13.35;2.20;;;16.80;99.90;;;;;;5017016;28;20065;-73
2022/09/16 11:31:07;;;;;;;15.43;2.25;;;16.90;99.60;;;;;;5034162;28;20041;-74
2022/09/16 11:33:38;;;;;;;10.32;2.08;;;16.80;99.90;;;;;;5036166;28;20187;-75
2022/09/16 11:36:29;;;;;;;13.70;2.35;;;16.50;99.90;;;;;;5057705;28;20047;-74
2022/09/16 11:39:37;;;;;;;12.90;2.63;;;15.90;99.90;;;;;;5057940;28;20103;-74
2022/09/16 11:42:17;;;;;;;18.65;3.13;;;15.60;99.90;;;;;;5049528;28;20056;-74
2022/09/16 11:45:01;;;;;;;9.88;2.60;;;15.60;99.90;;;;;;5057852;28;20468;-73
2022/09/16 11:47:35;;;;;;;13.02;2.50;;;15.70;99.90;;;;;;5057613;28;20519;-73
2022/09/16 11:50:27;;;;;;;10.48;2.60;;;15.70;99.90;;;;;;5043531;28;20389;-74
2022/09/16 11:53:23;;;;;;;9.38;1.98;;;15.90;99.90;;;;;;5037989;28;20130;-73
2022/09/16 11:56:16;;;;;;;20.88;3.20;;;16.00;99.90;;;;;;5037511;28;20111;-73
2022/09/16 11:59:00;;;;;;;11.70;2.60;;;16.20;99.90;;;;;;5037664;28;20121;-75
2022/09/16 12:01:47;;;;;;;9.30;2.03;;;16.30;99.90;;;;;;5037535;28;20143;-74
2022/09/16 12:04:34;;;;;;;13.48;2.33;;;16.50;99.90;;;;;;5045921;28;20041;-74
2022/09/16 12:07:12;;;;;;;11.93;2.40;;;16.50;97.80;;;;;;5056305;28;20501;-75
2022/09/16 12:09:50;;;;;;;9.48;2.22;;;16.60;99.40;;;;;;5057510;28;20041;-75
2022/09/16 12:12:21;;;;;;;12.68;2.88;;;16.60;97.80;;;;;;5057210;28;20048;-73
2022/09/16 12:14:54;;;;;;;10.73;2.15;;;16.70;98.10;;;;;;5057101;28;20045;-75
2022/09/16 12:17:25;;;;;;;9.55;2.35;;;16.80;99.10;;;;;;5057254;28;20441;-73
2022/09/16 12:20:06;;;;;;;13.32;1.98;;;17.00;97.10;;;;;;5057105;28;20053;-75
2022/09/16 12:22:41;;;;;;;11.60;2.13;;;17.10;97.90;;;;;;5055357;28;20111;-74
2022/09/16 12:25:21;;;;;;;10.25;2.92;;;17.20;97.50;;;;;;5056959;28;20048;-75
2022/09/16 12:27:59;;;;;;;9.98;2.42;;;17.20;97.40;;;;;;5040112;28;20396;-74
2022/09/16 12:30:33;;;;;;;12.02;2.78;;;17.20;96.60;;;;;;5056873;28;20045;-74
2022/09/16 12:33:21;;;;;;;12.70;2.28;;;17.30;97.10;;;;;;5057092;28;20041;-74
2022/09/16 12:36:14;;;;;;;12.25;2.78;;;17.30;97.10;;;;;;5056676;28;20449;-75
2022/09/16 12:38:40;;;;;;;14.23;2.60;;;17.40;97.70;;;;;;5056585;28;20041;-75
2022/09/16 12:41:52;;;;;;;14.90;3.30;;;17.40;97.30;;;;;;5056926;28;20052;-75
2022/09/16 12:44:54;;;;;;;11.80;2.53;;;17.40;97.40;;;;;;5008650;28;20122;-74
2022/09/16 12:47:36;;;;;;;12.02;2.60;;;17.40;99.90;;;;;;5036929;28;20049;-74
2022/09/16 12:50:02;;;;;;;12.57;2.97;;;17.50;97.40;;;;;;5036636;28;20122;-74
2022/09/16 12:53:02;;;;;;;17.45;2.95;;;17.50;97.40;;;;;;5036501;28;20099;-74
2022/09/16 12:55:36;;;;;;;11.00;2.45;;;17.60;95.90;;;;;;5036554;28;20049;-74
2022/09/16 12:58:18;;;;;;;26.75;3.58;;;17.60;96.40;;;;;;5045008;28;20049;-75
2022/09/16 13:01:18;;;;;;;13.20;2.88;;;17.60;97.30;;;;;;5056425;28;20056;-74
2022/09/16 13:03:54;;;;;;;18.65;2.70;;;17.70;97.10;;;;;;5029242;28;20045;-73
2022/09/16 13:06:30;;;;;;;14.48;3.20;;;17.60;97.90;;;;;;5038904;28;20458;-75
2022/09/16 13:08:58;;;;;;;13.98;2.92;;;17.50;97.60;;;;;;5056064;28;20110;-75
2022/09/16 13:11:27;;;;;;;11.43;2.20;;;17.40;97.60;;;;;;5056084;28;20353;-74
2022/09/16 13:13:56;;;;;;;11.65;2.05;;;17.20;97.60;;;;;;5056084;28;20060;-75
2022/09/16 13:16:50;;;;;;;12.05;2.38;;;17.10;97.30;;;;;;5039206;28;20111;-74